sensor_id;sensor_type;location;lat;lon;timestamp;temperature;humidity
66144;SHT31;52947;50.842;6.084;2022-09-16T00:00:53;12.95;81.88
66144;SHT31;52947;50.842;6.084;2022-09-16T00:03:21;12.92;81.81
66144;SHT31;52947;50.842;6.084;2022-09-16T00:05:50;12.87;82.02
66144;SHT31;52947;50.842;6.084;2022-09-16T00:08:19;12.91;82.23
66144;SHT31;52947;50.842;6.084;2022-09-16T00:10:47;12.91;82.19
66144;SHT31;52947;50.842;6.084;2022-09-16T00:13:16;12.91;82.32
66144;SHT31;52947;50.842;6.084;2022-09-16T00:15:46;12.94;86.44
66144;SHT31;52947;50.842;6.084;2022-09-16T00:18:15;13.42;86.42
66144;SHT31;52947;50.842;6.084;2022-09-16T00:20:44;13.84;86.73
66144;SHT31;52947;50.842;6.084;2022-09-16T00:23:12;13.95;86.05
66144;SHT31;52947;50.842;6.084;2022-09-16T00:25:40;14.14;81.93
66144;SHT31;52947;50.842;6.084;2022-09-16T00:28:08;14.15;82.35
66144;SHT31;52947;50.842;6.084;2022-09-16T00:30:36;14.32;82.26
66144;SHT31;52947;50.842;6.084;2022-09-16T00:33:04;14.35;80.41
66144;SHT31;52947;50.842;6.084;2022-09-16T00:35:33;14.66;80.67
66144;SHT31;52947;50.842;6.084;2022-09-16T00:38:01;14.79;82.67
66144;SHT31;52947;50.842;6.084;2022-09-16T00:40:29;14.77;80.92
66144;SHT31;52947;50.842;6.084;2022-09-16T00:42:56;14.71;79.31
66144;SHT31;52947;50.842;6.084;2022-09-16T00:45:26;14.77;79.74
66144;SHT31;52947;50.842;6.084;2022-09-16T00:47:59;14.72;78.04
66144;SHT31;52947;50.842;6.084;2022-09-16T00:50:34;14.59;78.65
66144;SHT31;52947;50.842;6.084;2022-09-16T00:53:04;14.48;77.69
66144;SHT31;52947;50.842;6.084;2022-09-16T00:55:36;14.54;80.34
66144;SHT31;52947;50.842;6.084;2022-09-16T00:58:10;14.58;78.32
66144;SHT31;52947;50.842;6.084;2022-09-16T01:00:40;14.83;79.36
66144;SHT31;52947;50.842;6.084;2022-09-16T01:03:08;14.89;77.93
66144;SHT31;52947;50.842;6.084;2022-09-16T01:05:37;15.02;79.07
66144;SHT31;52947;50.842;6.084;2022-09-16T01:08:05;14.90;76.21
66144;SHT31;52947;50.842;6.084;2022-09-16T01:10:33;14.85;76.99
66144;SHT31;52947;50.842;6.084;2022-09-16T01:13:03;14.72;77.63
66144;SHT31;52947;50.842;6.084;2022-09-16T01:15:36;14.52;77.82
66144;SHT31;52947;50.842;6.084;2022-09-16T01:18:13;14.17;77.64
66144;SHT31;52947;50.842;6.084;2022-09-16T01:21:10;14.21;79.64
66144;SHT31;52947;50.842;6.084;2022-09-16T01:24:13;14.03;78.34
66144;SHT31;52947;50.842;6.084;2022-09-16T01:30:31;13.93;79.37
66144;SHT31;52947;50.842;6.084;2022-09-16T01:33:03;13.74;80.45
66144;SHT31;52947;50.842;6.084;2022-09-16T01:35:50;13.77;80.39
66144;SHT31;52947;50.842;6.084;2022-09-16T01:38:31;13.47;81.15
66144;SHT31;52947;50.842;6.084;2022-09-16T01:41:06;13.35;81.07
66144;SHT31;52947;50.842;6.084;2022-09-16T01:43:43;13.30;81.23
66144;SHT31;52947;50.842;6.084;2022-09-16T01:46:19;13.33;81.02
66144;SHT31;52947;50.842;6.084;2022-09-16T01:48:53;13.33;81.58
66144;SHT31;52947;50.842;6.084;2022-09-16T01:51:26;13.47;82.26
66144;SHT31;52947;50.842;6.084;2022-09-16T01:54:02;13.60;81.17
66144;SHT31;52947;50.842;6.084;2022-09-16T01:56:38;13.57;81.25
66144;SHT31;52947;50.842;6.084;2022-09-16T01:59:09;13.66;82.16
66144;SHT31;52947;50.842;6.084;2022-09-16T02:01:43;13.62;81.16
66144;SHT31;52947;50.842;6.084;2022-09-16T02:04:15;13.66;80.30
66144;SHT31;52947;50.842;6.084;2022-09-16T02:06:44;13.80;80.09
66144;SHT31;52947;50.842;6.084;2022-09-16T02:09:17;14.00;80.41
66144;SHT31;52947;50.842;6.084;2022-09-16T02:11:46;13.94;79.46
66144;SHT31;52947;50.842;6.084;2022-09-16T02:14:18;14.10;80.13
66144;SHT31;52947;50.842;6.084;2022-09-16T02:16:52;14.18;79.77
66144;SHT31;52947;50.842;6.084;2022-09-16T02:19:25;14.14;79.71
66144;SHT31;52947;50.842;6.084;2022-09-16T02:21:54;14.10;77.49
66144;SHT31;52947;50.842;6.084;2022-09-16T02:24:24;14.17;79.20
66144;SHT31;52947;50.842;6.084;2022-09-16T02:26:56;14.10;78.64
66144;SHT31;52947;50.842;6.084;2022-09-16T02:29:28;14.20;78.45
66144;SHT31;52947;50.842;6.084;2022-09-16T02:32:00;14.34;77.61
66144;SHT31;52947;50.842;6.084;2022-09-16T02:34:32;14.18;78.52
66144;SHT31;52947;50.842;6.084;2022-09-16T02:37:03;14.31;78.38
66144;SHT31;52947;50.842;6.084;2022-09-16T02:39:35;14.13;77.16
66144;SHT31;52947;50.842;6.084;2022-09-16T02:42:04;14.21;77.46
66144;SHT31;52947;50.842;6.084;2022-09-16T02:44:33;13.91;77.26
66144;SHT31;52947;50.842;6.084;2022-09-16T02:47:07;14.04;79.57
66144;SHT31;52947;50.842;6.084;2022-09-16T02:49:38;13.94;79.16
66144;SHT31;52947;50.842;6.084;2022-09-16T02:52:14;13.95;78.66
66144;SHT31;52947;50.842;6.084;2022-09-16T02:54:48;13.93;77.72
66144;SHT31;52947;50.842;6.084;2022-09-16T02:57:19;13.81;78.87
66144;SHT31;52947;50.842;6.084;2022-09-16T02:59:48;13.76;78.33
66144;SHT31;52947;50.842;6.084;2022-09-16T03:02:17;13.71;78.16
66144;SHT31;52947;50.842;6.084;2022-09-16T03:04:45;13.62;77.80
66144;SHT31;52947;50.842;6.084;2022-09-16T03:07:13;13.63;79.73
66144;SHT31;52947;50.842;6.084;2022-09-16T03:09:44;13.49;79.58
66144;SHT31;52947;50.842;6.084;2022-09-16T03:12:19;13.47;79.70
66144;SHT31;52947;50.842;6.084;2022-09-16T03:15:02;13.45;81.03
66144;SHT31;52947;50.842;6.084;2022-09-16T03:17:45;13.69;80.69
66144;SHT31;52947;50.842;6.084;2022-09-16T03:20:18;13.46;79.27
66144;SHT31;52947;50.842;6.084;2022-09-16T03:22:50;13.42;79.42
66144;SHT31;52947;50.842;6.084;2022-09-16T03:25:27;13.40;79.60
66144;SHT31;52947;50.842;6.084;2022-09-16T03:28:01;13.43;80.03
66144;SHT31;52947;50.842;6.084;2022-09-16T03:30:31;13.40;78.74
66144;SHT31;52947;50.842;6.084;2022-09-16T03:33:05;13.20;79.22
66144;SHT31;52947;50.842;6.084;2022-09-16T03:35:40;13.27;80.83
66144;SHT31;52947;50.842;6.084;2022-09-16T03:38:11;12.96;80.98
66144;SHT31;52947;50.842;6.084;2022-09-16T03:40:41;12.91;80.78
66144;SHT31;52947;50.842;6.084;2022-09-16T03:43:10;12.81;80.44
66144;SHT31;52947;50.842;6.084;2022-09-16T03:45:38;13.02;80.62
66144;SHT31;52947;50.842;6.084;2022-09-16T03:48:10;13.20;81.01
66144;SHT31;52947;50.842;6.084;2022-09-16T03:50:38;13.05;78.59
66144;SHT31;52947;50.842;6.084;2022-09-16T03:53:06;13.05;80.66
66144;SHT31;52947;50.842;6.084;2022-09-16T03:55:33;12.87;80.95
66144;SHT31;52947;50.842;6.084;2022-09-16T03:58:01;12.55;80.34
66144;SHT31;52947;50.842;6.084;2022-09-16T04:00:29;12.51;81.73
66144;SHT31;52947;50.842;6.084;2022-09-16T04:02:58;12.40;81.09
66144;SHT31;52947;50.842;6.084;2022-09-16T04:05:28;12.40;81.95
66144;SHT31;52947;50.842;6.084;2022-09-16T04:07:56;12.41;82.08
66144;SHT31;52947;50.842;6.084;2022-09-16T04:10:24;12.55;83.19
66144;SHT31;52947;50.842;6.084;2022-09-16T04:12:55;12.57;81.70
66144;SHT31;52947;50.842;6.084;2022-09-16T04:15:23;12.96;81.66
66144;SHT31;52947;50.842;6.084;2022-09-16T04:17:51;13.09;80.73
66144;SHT31;52947;50.842;6.084;2022-09-16T04:20:19;13.13;79.12
66144;SHT31;52947;50.842;6.084;2022-09-16T04:22:48;13.05;78.88
66144;SHT31;52947;50.842;6.084;2022-09-16T04:25:15;13.05;79.34
66144;SHT31;52947;50.842;6.084;2022-09-16T04:27:43;13.12;78.69
66144;SHT31;52947;50.842;6.084;2022-09-16T04:30:12;13.25;79.43
66144;SHT31;52947;50.842;6.084;2022-09-16T04:32:40;13.35;78.79
66144;SHT31;52947;50.842;6.084;2022-09-16T04:35:08;13.46;78.93
66144;SHT31;52947;50.842;6.084;2022-09-16T04:37:36;13.56;78.35
66144;SHT31;52947;50.842;6.084;2022-09-16T04:40:06;13.53;77.85
66144;SHT31;52947;50.842;6.084;2022-09-16T04:42:34;13.69;77.73
66144;SHT31;52947;50.842;6.084;2022-09-16T04:45:02;13.74;76.93
66144;SHT31;52947;50.842;6.084;2022-09-16T04:47:29;13.60;75.97
66144;SHT31;52947;50.842;6.084;2022-09-16T04:49:57;13.71;77.38
66144;SHT31;52947;50.842;6.084;2022-09-16T04:52:25;13.88;77.27
66144;SHT31;52947;50.842;6.084;2022-09-16T04:54:53;13.86;77.36
66144;SHT31;52947;50.842;6.084;2022-09-16T04:57:29;13.63;76.74
66144;SHT31;52947;50.842;6.084;2022-09-16T04:59:57;13.77;77.71
66144;SHT31;52947;50.842;6.084;2022-09-16T05:02:24;13.78;76.81
66144;SHT31;52947;50.842;6.084;2022-09-16T05:04:54;13.69;75.87
66144;SHT31;52947;50.842;6.084;2022-09-16T05:07:22;13.33;76.03
66144;SHT31;52947;50.842;6.084;2022-09-16T05:09:49;13.39;76.86
66144;SHT31;52947;50.842;6.084;2022-09-16T05:12:17;13.35;77.54
66144;SHT31;52947;50.842;6.084;2022-09-16T05:14:47;13.49;76.34
66144;SHT31;52947;50.842;6.084;2022-09-16T05:17:14;13.30;76.06
66144;SHT31;52947;50.842;6.084;2022-09-16T05:20:02;13.25;76.26
66144;SHT31;52947;50.842;6.084;2022-09-16T05:22:30;13.43;77.59
66144;SHT31;52947;50.842;6.084;2022-09-16T05:24:58;13.50;78.12
66144;SHT31;52947;50.842;6.084;2022-09-16T05:27:28;13.36;76.43
66144;SHT31;52947;50.842;6.084;2022-09-16T05:29:58;13.83;76.77
66144;SHT31;52947;50.842;6.084;2022-09-16T05:32:26;13.63;75.65
66144;SHT31;52947;50.842;6.084;2022-09-16T05:34:53;13.76;75.81
66144;SHT31;52947;50.842;6.084;2022-09-16T05:37:21;13.90;76.64
66144;SHT31;52947;50.842;6.084;2022-09-16T05:39:49;13.77;74.55
66144;SHT31;52947;50.842;6.084;2022-09-16T05:42:17;13.69;76.05
66144;SHT31;52947;50.842;6.084;2022-09-16T05:44:45;13.66;76.12
66144;SHT31;52947;50.842;6.084;2022-09-16T05:47:14;13.64;75.11
66144;SHT31;52947;50.842;6.084;2022-09-16T05:49:42;13.64;74.99
66144;SHT31;52947;50.842;6.084;2022-09-16T05:52:09;13.78;76.19
66144;SHT31;52947;50.842;6.084;2022-09-16T05:54:37;13.50;75.10
66144;SHT31;52947;50.842;6.084;2022-09-16T05:57:05;14.05;75.52
66144;SHT31;52947;50.842;6.084;2022-09-16T05:59:33;14.03;75.29
66144;SHT31;52947;50.842;6.084;2022-09-16T06:02:01;13.94;75.29
66144;SHT31;52947;50.842;6.084;2022-09-16T06:04:30;14.10;76.41
66144;SHT31;52947;50.842;6.084;2022-09-16T06:06:58;13.91;74.79
66144;SHT31;52947;50.842;6.084;2022-09-16T06:09:28;13.94;74.81
66144;SHT31;52947;50.842;6.084;2022-09-16T06:11:55;13.74;74.69
66144;SHT31;52947;50.842;6.084;2022-09-16T06:14:28;13.67;77.08
66144;SHT31;52947;50.842;6.084;2022-09-16T06:16:56;13.74;77.48
66144;SHT31;52947;50.842;6.084;2022-09-16T06:19:23;13.70;76.30
66144;SHT31;52947;50.842;6.084;2022-09-16T06:21:53;13.71;76.73
66144;SHT31;52947;50.842;6.084;2022-09-16T06:24:20;13.77;76.65
66144;SHT31;52947;50.842;6.084;2022-09-16T06:26:48;13.94;75.84
66144;SHT31;52947;50.842;6.084;2022-09-16T06:29:16;13.77;75.03
66144;SHT31;52947;50.842;6.084;2022-09-16T06:31:44;13.84;75.69
66144;SHT31;52947;50.842;6.084;2022-09-16T06:34:13;13.91;76.07
66144;SHT31;52947;50.842;6.084;2022-09-16T06:36:41;14.03;75.41
66144;SHT31;52947;50.842;6.084;2022-09-16T06:39:13;14.31;75.25
66144;SHT31;52947;50.842;6.084;2022-09-16T06:50:05;14.90;73.20
66144;SHT31;52947;50.842;6.084;2022-09-16T06:52:33;14.65;74.22
66144;SHT31;52947;50.842;6.084;2022-09-16T06:55:02;14.36;74.59
66144;SHT31;52947;50.842;6.084;2022-09-16T07:05:55;14.54;73.93
66144;SHT31;52947;50.842;6.084;2022-09-16T07:08:24;14.38;74.76
66144;SHT31;52947;50.842;6.084;2022-09-16T07:10:57;14.24;74.12
66144;SHT31;52947;50.842;6.084;2022-09-16T07:13:25;14.10;75.22
66144;SHT31;52947;50.842;6.084;2022-09-16T07:15:53;14.05;75.16
66144;SHT31;52947;50.842;6.084;2022-09-16T07:18:38;14.20;75.65
66144;SHT31;52947;50.842;6.084;2022-09-16T07:21:08;14.25;75.49
66144;SHT31;52947;50.842;6.084;2022-09-16T07:23:37;14.61;75.20
66144;SHT31;52947;50.842;6.084;2022-09-16T07:26:07;14.85;73.92
66144;SHT31;52947;50.842;6.084;2022-09-16T07:28:36;16.36;70.38
66144;SHT31;52947;50.842;6.084;2022-09-16T07:31:05;16.84;68.41
66144;SHT31;52947;50.842;6.084;2022-09-16T07:33:35;16.57;68.30
66144;SHT31;52947;50.842;6.084;2022-09-16T07:36:04;16.30;68.67
66144;SHT31;52947;50.842;6.084;2022-09-16T07:38:32;16.05;69.60
66144;SHT31;52947;50.842;6.084;2022-09-16T07:41:04;16.22;69.87
66144;SHT31;52947;50.842;6.084;2022-09-16T07:43:33;16.02;69.62
66144;SHT31;52947;50.842;6.084;2022-09-16T07:46:01;16.01;71.27
66144;SHT31;52947;50.842;6.084;2022-09-16T07:48:30;15.53;70.25
66144;SHT31;52947;50.842;6.084;2022-09-16T07:51:02;15.20;71.50
66144;SHT31;52947;50.842;6.084;2022-09-16T07:53:31;15.17;72.96
66144;SHT31;52947;50.842;6.084;2022-09-16T07:56:00;15.28;72.79
66144;SHT31;52947;50.842;6.084;2022-09-16T07:58:29;15.10;72.86
66144;SHT31;52947;50.842;6.084;2022-09-16T08:00:59;15.03;73.02
66144;SHT31;52947;50.842;6.084;2022-09-16T08:03:30;14.92;73.60
66144;SHT31;52947;50.842;6.084;2022-09-16T08:05:59;14.89;73.05
66144;SHT31;52947;50.842;6.084;2022-09-16T08:08:27;15.04;73.60
66144;SHT31;52947;50.842;6.084;2022-09-16T08:10:56;15.07;73.33
66144;SHT31;52947;50.842;6.084;2022-09-16T08:13:25;15.30;73.23
66144;SHT31;52947;50.842;6.084;2022-09-16T08:15:53;15.72;72.57
66144;SHT31;52947;50.842;6.084;2022-09-16T08:18:22;15.99;71.14
66144;SHT31;52947;50.842;6.084;2022-09-16T08:20:50;16.77;70.17
66144;SHT31;52947;50.842;6.084;2022-09-16T08:23:24;16.74;69.04
66144;SHT31;52947;50.842;6.084;2022-09-16T08:25:55;16.47;69.24
66144;SHT31;52947;50.842;6.084;2022-09-16T08:28:24;16.12;70.77
66144;SHT31;52947;50.842;6.084;2022-09-16T08:31:11;16.06;71.56
66144;SHT31;52947;50.842;6.084;2022-09-16T08:33:41;15.88;71.60
66144;SHT31;52947;50.842;6.084;2022-09-16T08:36:11;15.81;71.68
66144;SHT31;52947;50.842;6.084;2022-09-16T08:38:42;15.71;71.60
66144;SHT31;52947;50.842;6.084;2022-09-16T08:41:25;15.75;71.78
66144;SHT31;52947;50.842;6.084;2022-09-16T08:44:02;16.43;71.65
66144;SHT31;52947;50.842;6.084;2022-09-16T08:46:35;16.63;70.89
66144;SHT31;52947;50.842;6.084;2022-09-16T08:49:15;16.36;70.61
66144;SHT31;52947;50.842;6.084;2022-09-16T08:51:45;16.29;69.75
66144;SHT31;52947;50.842;6.084;2022-09-16T08:54:22;16.28;69.54
66144;SHT31;52947;50.842;6.084;2022-09-16T08:56:53;16.38;69.32
66144;SHT31;52947;50.842;6.084;2022-09-16T08:59:24;16.45;69.48
66144;SHT31;52947;50.842;6.084;2022-09-16T09:01:57;16.60;68.96
66144;SHT31;52947;50.842;6.084;2022-09-16T09:08:55;17.29;69.16
66144;SHT31;52947;50.842;6.084;2022-09-16T09:11:28;17.38;68.75
66144;SHT31;52947;50.842;6.084;2022-09-16T09:14:14;17.63;66.45
66144;SHT31;52947;50.842;6.084;2022-09-16T09:16:50;17.80;66.37
66144;SHT31;52947;50.842;6.084;2022-09-16T09:19:29;17.68;65.38
66144;SHT31;52947;50.842;6.084;2022-09-16T09:22:05;18.03;65.57
66144;SHT31;52947;50.842;6.084;2022-09-16T09:24:48;18.26;63.58
66144;SHT31;52947;50.842;6.084;2022-09-16T09:27:26;18.14;64.92
66144;SHT31;52947;50.842;6.084;2022-09-16T09:30:04;17.66;65.39
66144;SHT31;52947;50.842;6.084;2022-09-16T09:32:44;17.69;65.64
66144;SHT31;52947;50.842;6.084;2022-09-16T09:35:26;17.70;65.78
66144;SHT31;52947;50.842;6.084;2022-09-16T09:38:19;17.32;65.56
66144;SHT31;52947;50.842;6.084;2022-09-16T09:40:59;16.90;65.25
66144;SHT31;52947;50.842;6.084;2022-09-16T09:43:33;17.11;66.49
66144;SHT31;52947;50.842;6.084;2022-09-16T09:46:04;17.39;65.68
66144;SHT31;52947;50.842;6.084;2022-09-16T09:48:37;17.55;66.56
66144;SHT31;52947;50.842;6.084;2022-09-16T09:51:12;17.28;66.62
66144;SHT31;52947;50.842;6.084;2022-09-16T09:53:44;17.36;65.94
66144;SHT31;52947;50.842;6.084;2022-09-16T09:56:21;17.38;66.41
66144;SHT31;52947;50.842;6.084;2022-09-16T09:58:57;17.24;68.15
66144;SHT31;52947;50.842;6.084;2022-09-16T10:01:27;16.95;68.18
66144;SHT31;52947;50.842;6.084;2022-09-16T10:03:57;16.79;69.45
66144;SHT31;52947;50.842;6.084;2022-09-16T10:06:28;16.81;68.25
66144;SHT31;52947;50.842;6.084;2022-09-16T10:08:57;17.14;68.86
66144;SHT31;52947;50.842;6.084;2022-09-16T10:11:28;17.00;67.66
66144;SHT31;52947;50.842;6.084;2022-09-16T10:13:58;16.92;67.50
66144;SHT31;52947;50.842;6.084;2022-09-16T10:16:28;17.86;66.97
66144;SHT31;52947;50.842;6.084;2022-09-16T10:19:01;18.81;62.59
66144;SHT31;52947;50.842;6.084;2022-09-16T10:21:40;18.37;64.45
66144;SHT31;52947;50.842;6.084;2022-09-16T10:24:28;18.54;63.81
66144;SHT31;52947;50.842;6.084;2022-09-16T10:26:59;19.19;62.22
66144;SHT31;52947;50.842;6.084;2022-09-16T10:29:28;18.96;62.05
66144;SHT31;52947;50.842;6.084;2022-09-16T10:31:55;20.08;59.81
66144;SHT31;52947;50.842;6.084;2022-09-16T10:34:33;20.61;59.74
66144;SHT31;52947;50.842;6.084;2022-09-16T10:37:15;21.16;56.77
66144;SHT31;52947;50.842;6.084;2022-09-16T10:39:49;21.94;55.67
66144;SHT31;52947;50.842;6.084;2022-09-16T10:42:22;23.24;52.74
66144;SHT31;52947;50.842;6.084;2022-09-16T10:44:52;22.23;52.88
66144;SHT31;52947;50.842;6.084;2022-09-16T10:47:24;20.86;55.31
66144;SHT31;52947;50.842;6.084;2022-09-16T10:49:55;20.14;58.04
66144;SHT31;52947;50.842;6.084;2022-09-16T10:52:25;19.97;59.22
66144;SHT31;52947;50.842;6.084;2022-09-16T10:54:54;21.08;55.57
66144;SHT31;52947;50.842;6.084;2022-09-16T10:57:26;20.39;57.24
66144;SHT31;52947;50.842;6.084;2022-09-16T10:59:59;19.33;59.54
66144;SHT31;52947;50.842;6.084;2022-09-16T11:02:42;19.54;58.40
66144;SHT31;52947;50.842;6.084;2022-09-16T11:05:17;18.54;61.24
66144;SHT31;52947;50.842;6.084;2022-09-16T11:07:59;18.09;62.98
66144;SHT31;52947;50.842;6.084;2022-09-16T11:10:35;17.72;63.84
66144;SHT31;52947;50.842;6.084;2022-09-16T11:13:18;17.68;63.47
66144;SHT31;52947;50.842;6.084;2022-09-16T11:15:59;17.58;63.26
66144;SHT31;52947;50.842;6.084;2022-09-16T11:21:48;17.03;64.58
66144;SHT31;52947;50.842;6.084;2022-09-16T11:27:36;15.94;69.85
66144;SHT31;52947;50.842;6.084;2022-09-16T11:30:10;15.82;70.63
66144;SHT31;52947;50.842;6.084;2022-09-16T11:32:58;15.46;72.32
66144;SHT31;52947;50.842;6.084;2022-09-16T11:35:38;14.97;74.68
66144;SHT31;52947;50.842;6.084;2022-09-16T11:38:15;14.46;76.64
66144;SHT31;52947;50.842;6.084;2022-09-16T11:40:51;14.45;75.44
66144;SHT31;52947;50.842;6.084;2022-09-16T11:43:40;14.66;75.45
66144;SHT31;52947;50.842;6.084;2022-09-16T11:46:17;15.13;75.29
66144;SHT31;52947;50.842;6.084;2022-09-16T11:49:01;16.25;72.06
66144;SHT31;52947;50.842;6.084;2022-09-16T11:51:40;17.34;69.23
66144;SHT31;52947;50.842;6.084;2022-09-16T11:54:21;17.55;67.40
66144;SHT31;52947;50.842;6.084;2022-09-16T11:56:52;17.43;66.74
66144;SHT31;52947;50.842;6.084;2022-09-16T11:59:25;17.31;68.06
66144;SHT31;52947;50.842;6.084;2022-09-16T12:01:59;17.39;68.09
66144;SHT31;52947;50.842;6.084;2022-09-16T12:04:33;17.42;67.64
66144;SHT31;52947;50.842;6.084;2022-09-16T12:07:09;19.03;65.72
66144;SHT31;52947;50.842;6.084;2022-09-16T12:09:41;20.15;62.18
66144;SHT31;52947;50.842;6.084;2022-09-16T12:12:13;20.77;61.55
66144;SHT31;52947;50.842;6.084;2022-09-16T12:14:44;21.55;59.45
66144;SHT31;52947;50.842;6.084;2022-09-16T12:17:18;19.52;62.68
66144;SHT31;52947;50.842;6.084;2022-09-16T12:19:50;18.50;64.00
66144;SHT31;52947;50.842;6.084;2022-09-16T12:22:21;15.92;65.54
66144;SHT31;52947;50.842;6.084;2022-09-16T12:24:55;14.18;69.85
66144;SHT31;52947;50.842;6.084;2022-09-16T12:27:36;13.88;73.67
66144;SHT31;52947;50.842;6.084;2022-09-16T12:30:07;13.50;73.88
66144;SHT31;52947;50.842;6.084;2022-09-16T12:32:47;13.42;73.93
66144;SHT31;52947;50.842;6.084;2022-09-16T12:35:19;13.53;74.47
66144;SHT31;52947;50.842;6.084;2022-09-16T12:37:49;13.12;74.64
66144;SHT31;52947;50.842;6.084;2022-09-16T12:40:20;12.99;75.61
66144;SHT31;52947;50.842;6.084;2022-09-16T12:43:17;12.94;75.57
66144;SHT31;52947;50.842;6.084;2022-09-16T12:46:08;12.81;78.14
66144;SHT31;52947;50.842;6.084;2022-09-16T12:55:26;13.71;76.16
66144;SHT31;52947;50.842;6.084;2022-09-16T12:58:15;14.01;75.27
66144;SHT31;52947;50.842;6.084;2022-09-16T13:00:53;14.15;75.96
66144;SHT31;52947;50.842;6.084;2022-09-16T13:03:25;14.28;73.47
66144;SHT31;52947;50.842;6.084;2022-09-16T13:05:55;14.80;72.85
66144;SHT31;52947;50.842;6.084;2022-09-16T13:08:25;16.59;69.39
66144;SHT31;52947;50.842;6.084;2022-09-16T13:10:57;17.55;65.56
66144;SHT31;52947;50.842;6.084;2022-09-16T13:13:47;17.39;66.24
66144;SHT31;52947;50.842;6.084;2022-09-16T13:16:27;17.69;65.41
66144;SHT31;52947;50.842;6.084;2022-09-16T13:22:10;17.82;64.30
66144;SHT31;52947;50.842;6.084;2022-09-16T13:24:41;17.69;65.39
66144;SHT31;52947;50.842;6.084;2022-09-16T13:27:24;17.03;67.29
66144;SHT31;52947;50.842;6.084;2022-09-16T13:30:24;16.20;68.48
66144;SHT31;52947;50.842;6.084;2022-09-16T13:33:01;15.78;68.95
66144;SHT31;52947;50.842;6.084;2022-09-16T13:35:40;15.51;71.47
66144;SHT31;52947;50.842;6.084;2022-09-16T13:38:23;15.36;71.12
66144;SHT31;52947;50.842;6.084;2022-09-16T13:40:53;15.33;71.65
66144;SHT31;52947;50.842;6.084;2022-09-16T13:43:30;15.38;72.78
66144;SHT31;52947;50.842;6.084;2022-09-16T13:46:06;15.57;72.76
66144;SHT31;52947;50.842;6.084;2022-09-16T13:48:41;15.58;71.13
66144;SHT31;52947;50.842;6.084;2022-09-16T13:51:16;15.57;71.10
66144;SHT31;52947;50.842;6.084;2022-09-16T13:53:46;15.99;71.80
66144;SHT31;52947;50.842;6.084;2022-09-16T13:56:33;16.06;69.95
66144;SHT31;52947;50.842;6.084;2022-09-16T13:59:16;16.28;69.88
66144;SHT31;52947;50.842;6.084;2022-09-16T14:01:57;16.33;68.51
66144;SHT31;52947;50.842;6.084;2022-09-16T14:04:40;16.42;68.66
66144;SHT31;52947;50.842;6.084;2022-09-16T14:07:26;16.56;70.09
66144;SHT31;52947;50.842;6.084;2022-09-16T14:09:58;16.46;69.41
66144;SHT31;52947;50.842;6.084;2022-09-16T14:12:34;16.29;69.62
66144;SHT31;52947;50.842;6.084;2022-09-16T14:15:06;16.18;70.42
66144;SHT31;52947;50.842;6.084;2022-09-16T14:17:38;16.40;71.40
66144;SHT31;52947;50.842;6.084;2022-09-16T14:20:12;16.06;70.94
66144;SHT31;52947;50.842;6.084;2022-09-16T14:22:43;15.75;73.57
66144;SHT31;52947;50.842;6.084;2022-09-16T14:25:25;15.33;72.89
66144;SHT31;52947;50.842;6.084;2022-09-16T14:28:23;15.59;72.88
66144;SHT31;52947;50.842;6.084;2022-09-16T14:30:54;15.74;73.41
66144;SHT31;52947;50.842;6.084;2022-09-16T14:33:27;15.43;72.42
66144;SHT31;52947;50.842;6.084;2022-09-16T14:35:58;15.04;73.45
66144;SHT31;52947;50.842;6.084;2022-09-16T14:38:31;15.20;73.44
66144;SHT31;52947;50.842;6.084;2022-09-16T14:41:18;15.24;73.84
66144;SHT31;52947;50.842;6.084;2022-09-16T14:43:48;15.14;72.91
66144;SHT31;52947;50.842;6.084;2022-09-16T14:46:18;15.16;74.05
66144;SHT31;52947;50.842;6.084;2022-09-16T14:48:46;15.48;72.63
66144;SHT31;52947;50.842;6.084;2022-09-16T14:51:20;15.58;72.25
66144;SHT31;52947;50.842;6.084;2022-09-16T14:53:54;15.43;72.27
66144;SHT31;52947;50.842;6.084;2022-09-16T14:56:37;15.41;73.35
66144;SHT31;52947;50.842;6.084;2022-09-16T14:59:09;13.42;78.08
66144;SHT31;52947;50.842;6.084;2022-09-16T15:01:39;11.85;82.30
66144;SHT31;52947;50.842;6.084;2022-09-16T15:04:10;11.58;79.90
66144;SHT31;52947;50.842;6.084;2022-09-16T15:06:46;11.46;80.25
66144;SHT31;52947;50.842;6.084;2022-09-16T15:09:20;11.69;81.48
66144;SHT31;52947;50.842;6.084;2022-09-16T15:11:54;11.86;81.89
66144;SHT31;52947;50.842;6.084;2022-09-16T15:14:23;12.03;80.46
66144;SHT31;52947;50.842;6.084;2022-09-16T15:16:56;12.30;80.41
66144;SHT31;52947;50.842;6.084;2022-09-16T15:19:27;12.34;79.73
66144;SHT31;52947;50.842;6.084;2022-09-16T15:21:56;12.61;81.00
66144;SHT31;52947;50.842;6.084;2022-09-16T15:24:26;12.87;79.26
66144;SHT31;52947;50.842;6.084;2022-09-16T15:26:57;13.27;79.64
66144;SHT31;52947;50.842;6.084;2022-09-16T15:29:29;13.23;77.47
66144;SHT31;52947;50.842;6.084;2022-09-16T15:32:16;13.57;78.42
66144;SHT31;52947;50.842;6.084;2022-09-16T15:34:45;13.76;77.13
66144;SHT31;52947;50.842;6.084;2022-09-16T15:37:28;13.43;77.26
66144;SHT31;52947;50.842;6.084;2022-09-16T15:40:07;13.80;78.43
66144;SHT31;52947;50.842;6.084;2022-09-16T15:42:36;14.01;77.72
66144;SHT31;52947;50.842;6.084;2022-09-16T15:45:14;13.87;75.24
66144;SHT31;52947;50.842;6.084;2022-09-16T15:47:55;13.59;76.81
66144;SHT31;52947;50.842;6.084;2022-09-16T15:50:24;13.33;77.42
66144;SHT31;52947;50.842;6.084;2022-09-16T15:52:56;13.22;78.15
66144;SHT31;52947;50.842;6.084;2022-09-16T15:55:31;13.05;77.74
66144;SHT31;52947;50.842;6.084;2022-09-16T15:58:04;12.94;79.59
66144;SHT31;52947;50.842;6.084;2022-09-16T16:00:57;12.81;80.29
66144;SHT31;52947;50.842;6.084;2022-09-16T16:03:29;12.67;79.99
66144;SHT31;52947;50.842;6.084;2022-09-16T16:05:58;12.53;80.38
66144;SHT31;52947;50.842;6.084;2022-09-16T16:08:43;12.41;80.33
66144;SHT31;52947;50.842;6.084;2022-09-16T16:11:13;12.44;81.19
66144;SHT31;52947;50.842;6.084;2022-09-16T16:13:41;12.44;80.04
66144;SHT31;52947;50.842;6.084;2022-09-16T16:16:11;12.55;81.08
66144;SHT31;52947;50.842;6.084;2022-09-16T16:18:42;12.61;78.94
66144;SHT31;52947;50.842;6.084;2022-09-16T16:21:13;12.78;81.60
66144;SHT31;52947;50.842;6.084;2022-09-16T16:23:41;12.81;79.67
66144;SHT31;52947;50.842;6.084;2022-09-16T16:26:10;12.82;78.78
66144;SHT31;52947;50.842;6.084;2022-09-16T16:28:38;12.74;79.36
66144;SHT31;52947;50.842;6.084;2022-09-16T16:31:07;12.67;79.57
66144;SHT31;52947;50.842;6.084;2022-09-16T16:33:35;12.60;80.88
66144;SHT31;52947;50.842;6.084;2022-09-16T16:36:11;12.53;81.23
66144;SHT31;52947;50.842;6.084;2022-09-16T16:38:40;12.65;79.94
66144;SHT31;52947;50.842;6.084;2022-09-16T16:41:08;12.55;79.75
66144;SHT31;52947;50.842;6.084;2022-09-16T16:43:37;12.63;79.89
66144;SHT31;52947;50.842;6.084;2022-09-16T16:46:05;12.58;79.35